sensor_id;sensor_type;location;lat;lon;timestamp;temperature;humidity
2899;DHT22;1459;50.864;6.438;2022-11-15T00:00:08;10.10;99.90
2899;DHT22;1459;50.864;6.438;2022-11-15T00:02:36;10.20;99.90
2899;DHT22;1459;50.864;6.438;2022-11-15T00:05:03;10.30;99.90
2899;DHT22;1459;50.864;6.438;2022-11-15T00:07:30;10.40;99.90
2899;DHT22;1459;50.864;6.438;2022-11-15T00:09:57;10.50;99.90
2899;DHT22;1459;50.864;6.438;2022-11-15T00:12:27;10.60;99.90
2899;DHT22;1459;50.864;6.438;2022-11-15T00:14:54;10.70;99.90
2899;DHT22;1459;50.864;6.438;2022-11-15T00:17:21;10.80;99.90
2899;DHT22;1459;50.864;6.438;2022-11-15T00:19:48;10.80;99.90
2899;DHT22;1459;50.864;6.438;2022-11-15T00:22:15;11.00;99.90
2899;DHT22;1459;50.864;6.438;2022-11-15T00:24:42;11.00;99.90
2899;DHT22;1459;50.864;6.438;2022-11-15T00:27:09;11.10;99.90
2899;DHT22;1459;50.864;6.438;2022-11-15T00:29:37;11.10;99.90
2899;DHT22;1459;50.864;6.438;2022-11-15T00:32:08;11.20;99.90
2899;DHT22;1459;50.864;6.438;2022-11-15T00:34:36;11.20;99.90
2899;DHT22;1459;50.864;6.438;2022-11-15T00:37:03;11.30;99.90
2899;DHT22;1459;50.864;6.438;2022-11-15T00:39:30;11.30;99.90
2899;DHT22;1459;50.864;6.438;2022-11-15T00:41:57;11.30;99.90
2899;DHT22;1459;50.864;6.438;2022-11-15T00:44:24;11.40;99.90
2899;DHT22;1459;50.864;6.438;2022-11-15T00:46:52;11.40;99.90
2899;DHT22;1459;50.864;6.438;2022-11-15T00:49:19;11.40;99.90
2899;DHT22;1459;50.864;6.438;2022-11-15T00:51:46;11.40;99.90
2899;DHT22;1459;50.864;6.438;2022-11-15T00:54:13;11.40;99.90
2899;DHT22;1459;50.864;6.438;2022-11-15T00:56:43;11.40;99.90
2899;DHT22;1459;50.864;6.438;2022-11-15T00:59:10;11.40;99.90
2899;DHT22;1459;50.864;6.438;2022-11-15T01:01:37;11.40;99.90
2899;DHT22;1459;50.864;6.438;2022-11-15T01:04:06;11.40;99.90
2899;DHT22;1459;50.864;6.438;2022-11-15T01:06:35;11.50;99.90
2899;DHT22;1459;50.864;6.438;2022-11-15T01:09:03;11.40;99.90
2899;DHT22;1459;50.864;6.438;2022-11-15T01:11:30;11.40;99.90
2899;DHT22;1459;50.864;6.438;2022-11-15T01:13:57;11.40;99.90
2899;DHT22;1459;50.864;6.438;2022-11-15T01:16:24;11.40;99.90
2899;DHT22;1459;50.864;6.438;2022-11-15T01:18:51;11.40;99.90
2899;DHT22;1459;50.864;6.438;2022-11-15T01:21:20;11.40;99.90
2899;DHT22;1459;50.864;6.438;2022-11-15T01:23:47;11.40;99.90
2899;DHT22;1459;50.864;6.438;2022-11-15T01:26:15;11.40;99.90
2899;DHT22;1459;50.864;6.438;2022-11-15T01:28:42;11.40;99.90
2899;DHT22;1459;50.864;6.438;2022-11-15T01:31:13;11.40;99.90
2899;DHT22;1459;50.864;6.438;2022-11-15T01:33:40;11.40;99.90
2899;DHT22;1459;50.864;6.438;2022-11-15T01:36:10;11.50;99.90
2899;DHT22;1459;50.864;6.438;2022-11-15T01:38:39;11.50;99.90
2899;DHT22;1459;50.864;6.438;2022-11-15T01:41:06;11.50;99.90
2899;DHT22;1459;50.864;6.438;2022-11-15T01:43:40;11.60;99.90
2899;DHT22;1459;50.864;6.438;2022-11-15T01:46:19;11.70;99.90
2899;DHT22;1459;50.864;6.438;2022-11-15T01:48:50;11.70;99.90
2899;DHT22;1459;50.864;6.438;2022-11-15T01:51:19;11.70;99.90
2899;DHT22;1459;50.864;6.438;2022-11-15T01:53:51;11.80;99.90
2899;DHT22;1459;50.864;6.438;2022-11-15T01:56:21;11.80;99.90
2899;DHT22;1459;50.864;6.438;2022-11-15T01:58:50;11.80;99.90
2899;DHT22;1459;50.864;6.438;2022-11-15T02:01:18;11.80;99.90
2899;DHT22;1459;50.864;6.438;2022-11-15T02:03:52;11.80;99.90
2899;DHT22;1459;50.864;6.438;2022-11-15T02:06:21;11.80;99.90
2899;DHT22;1459;50.864;6.438;2022-11-15T02:08:50;11.90;99.90
2899;DHT22;1459;50.864;6.438;2022-11-15T02:11:17;11.90;99.90
2899;DHT22;1459;50.864;6.438;2022-11-15T02:13:45;11.80;99.90
2899;DHT22;1459;50.864;6.438;2022-11-15T02:16:18;11.90;99.90
2899;DHT22;1459;50.864;6.438;2022-11-15T02:18:52;11.80;99.90
2899;DHT22;1459;50.864;6.438;2022-11-15T02:21:26;11.80;99.90
2899;DHT22;1459;50.864;6.438;2022-11-15T02:27:31;11.70;99.90
2899;DHT22;1459;50.864;6.438;2022-11-15T02:30:18;11.70;99.90
2899;DHT22;1459;50.864;6.438;2022-11-15T02:32:48;11.70;99.90
2899;DHT22;1459;50.864;6.438;2022-11-15T02:35:22;11.70;99.90
2899;DHT22;1459;50.864;6.438;2022-11-15T02:37:55;11.70;99.90
2899;DHT22;1459;50.864;6.438;2022-11-15T02:40:30;11.70;99.90
2899;DHT22;1459;50.864;6.438;2022-11-15T02:43:04;11.70;99.90
2899;DHT22;1459;50.864;6.438;2022-11-15T02:45:56;11.70;99.90
2899;DHT22;1459;50.864;6.438;2022-11-15T02:48:26;11.70;99.90
2899;DHT22;1459;50.864;6.438;2022-11-15T02:50:53;11.70;99.90
2899;DHT22;1459;50.864;6.438;2022-11-15T02:53:24;11.70;99.90
2899;DHT22;1459;50.864;6.438;2022-11-15T02:55:52;11.70;99.90
2899;DHT22;1459;50.864;6.438;2022-11-15T02:58:38;11.80;99.90
2899;DHT22;1459;50.864;6.438;2022-11-15T03:01:15;11.80;99.90
2899;DHT22;1459;50.864;6.438;2022-11-15T03:03:58;11.80;99.90
2899;DHT22;1459;50.864;6.438;2022-11-15T03:06:32;11.70;99.90
2899;DHT22;1459;50.864;6.438;2022-11-15T03:09:07;11.70;99.90
2899;DHT22;1459;50.864;6.438;2022-11-15T03:11:38;11.70;99.90
2899;DHT22;1459;50.864;6.438;2022-11-15T03:14:17;11.70;99.90
2899;DHT22;1459;50.864;6.438;2022-11-15T03:16:53;11.70;99.90
2899;DHT22;1459;50.864;6.438;2022-11-15T03:19:28;11.70;99.90
2899;DHT22;1459;50.864;6.438;2022-11-15T03:21:59;11.60;99.90
2899;DHT22;1459;50.864;6.438;2022-11-15T03:24:29;11.60;99.90
2899;DHT22;1459;50.864;6.438;2022-11-15T03:26:59;11.60;99.90
2899;DHT22;1459;50.864;6.438;2022-11-15T03:29:31;11.60;99.90
2899;DHT22;1459;50.864;6.438;2022-11-15T03:32:03;11.60;99.90
2899;DHT22;1459;50.864;6.438;2022-11-15T03:34:34;11.60;99.90
2899;DHT22;1459;50.864;6.438;2022-11-15T03:37:02;11.60;99.90
2899;DHT22;1459;50.864;6.438;2022-11-15T03:39:30;11.60;99.90
2899;DHT22;1459;50.864;6.438;2022-11-15T03:42:04;11.60;99.90
2899;DHT22;1459;50.864;6.438;2022-11-15T03:44:40;11.50;99.90
2899;DHT22;1459;50.864;6.438;2022-11-15T03:47:13;11.60;99.90
2899;DHT22;1459;50.864;6.438;2022-11-15T03:49:45;11.60;99.90
2899;DHT22;1459;50.864;6.438;2022-11-15T03:52:17;11.60;99.90
2899;DHT22;1459;50.864;6.438;2022-11-15T03:54:50;11.60;99.90
2899;DHT22;1459;50.864;6.438;2022-11-15T03:57:17;11.60;99.90
2899;DHT22;1459;50.864;6.438;2022-11-15T03:59:44;11.50;99.90
2899;DHT22;1459;50.864;6.438;2022-11-15T04:02:13;11.50;99.90
2899;DHT22;1459;50.864;6.438;2022-11-15T04:04:40;11.50;99.90
2899;DHT22;1459;50.864;6.438;2022-11-15T04:07:07;11.50;99.90
2899;DHT22;1459;50.864;6.438;2022-11-15T04:09:34;11.50;99.90
2899;DHT22;1459;50.864;6.438;2022-11-15T04:12:22;11.40;99.90
2899;DHT22;1459;50.864;6.438;2022-11-15T04:14:56;11.40;99.90
2899;DHT22;1459;50.864;6.438;2022-11-15T04:17:39;11.40;99.90
2899;DHT22;1459;50.864;6.438;2022-11-15T04:20:09;11.30;99.90
2899;DHT22;1459;50.864;6.438;2022-11-15T04:22:54;11.30;99.90
2899;DHT22;1459;50.864;6.438;2022-11-15T04:25:39;11.30;99.90
2899;DHT22;1459;50.864;6.438;2022-11-15T04:28:06;11.30;99.90
2899;DHT22;1459;50.864;6.438;2022-11-15T04:30:33;11.30;99.90
2899;DHT22;1459;50.864;6.438;2022-11-15T04:33:03;11.40;99.90
2899;DHT22;1459;50.864;6.438;2022-11-15T04:35:30;11.40;99.90
2899;DHT22;1459;50.864;6.438;2022-11-15T04:37:57;11.40;99.90
2899;DHT22;1459;50.864;6.438;2022-11-15T04:40:27;11.40;99.90
2899;DHT22;1459;50.864;6.438;2022-11-15T04:42:54;11.50;99.90
2899;DHT22;1459;50.864;6.438;2022-11-15T04:45:21;11.50;99.90
2899;DHT22;1459;50.864;6.438;2022-11-15T04:47:48;11.50;99.90
2899;DHT22;1459;50.864;6.438;2022-11-15T04:50:18;11.50;99.90
2899;DHT22;1459;50.864;6.438;2022-11-15T04:52:50;11.60;99.90
2899;DHT22;1459;50.864;6.438;2022-11-15T04:55:18;11.60;99.90
2899;DHT22;1459;50.864;6.438;2022-11-15T04:57:45;11.60;99.90
2899;DHT22;1459;50.864;6.438;2022-11-15T05:00:15;11.60;99.90
2899;DHT22;1459;50.864;6.438;2022-11-15T05:02:42;11.60;99.90
2899;DHT22;1459;50.864;6.438;2022-11-15T05:05:28;11.70;99.90
2899;DHT22;1459;50.864;6.438;2022-11-15T05:07:55;11.70;99.90
2899;DHT22;1459;50.864;6.438;2022-11-15T05:10:22;11.60;99.90
2899;DHT22;1459;50.864;6.438;2022-11-15T05:12:49;11.60;99.90
2899;DHT22;1459;50.864;6.438;2022-11-15T05:15:16;11.50;99.90
2899;DHT22;1459;50.864;6.438;2022-11-15T05:17:43;11.50;99.90
2899;DHT22;1459;50.864;6.438;2022-11-15T05:20:11;11.50;99.90
2899;DHT22;1459;50.864;6.438;2022-11-15T05:22:39;11.50;99.90
2899;DHT22;1459;50.864;6.438;2022-11-15T05:25:07;11.40;99.90
2899;DHT22;1459;50.864;6.438;2022-11-15T05:27:35;11.30;99.90
2899;DHT22;1459;50.864;6.438;2022-11-15T05:30:02;11.30;99.90
2899;DHT22;1459;50.864;6.438;2022-11-15T05:32:29;11.20;99.90
2899;DHT22;1459;50.864;6.438;2022-11-15T05:34:56;11.10;99.90
2899;DHT22;1459;50.864;6.438;2022-11-15T05:37:24;11.10;99.90
2899;DHT22;1459;50.864;6.438;2022-11-15T05:39:53;11.00;99.90
2899;DHT22;1459;50.864;6.438;2022-11-15T05:42:20;11.00;99.90
2899;DHT22;1459;50.864;6.438;2022-11-15T05:44:48;10.90;99.90
2899;DHT22;1459;50.864;6.438;2022-11-15T05:47:19;10.80;99.90
2899;DHT22;1459;50.864;6.438;2022-11-15T05:49:48;10.70;99.90
2899;DHT22;1459;50.864;6.438;2022-11-15T05:52:19;10.60;99.90
2899;DHT22;1459;50.864;6.438;2022-11-15T05:54:47;10.60;99.90
2899;DHT22;1459;50.864;6.438;2022-11-15T05:57:16;10.50;99.90
2899;DHT22;1459;50.864;6.438;2022-11-15T05:59:44;10.40;99.90
2899;DHT22;1459;50.864;6.438;2022-11-15T06:02:11;10.40;99.90
2899;DHT22;1459;50.864;6.438;2022-11-15T06:04:38;10.30;99.90
2899;DHT22;1459;50.864;6.438;2022-11-15T06:07:05;10.30;99.90
2899;DHT22;1459;50.864;6.438;2022-11-15T06:09:32;10.20;99.90
2899;DHT22;1459;50.864;6.438;2022-11-15T06:11:59;10.20;99.90
2899;DHT22;1459;50.864;6.438;2022-11-15T06:14:27;10.20;99.90
2899;DHT22;1459;50.864;6.438;2022-11-15T06:16:55;10.10;99.90
2899;DHT22;1459;50.864;6.438;2022-11-15T06:19:22;10.10;99.90
2899;DHT22;1459;50.864;6.438;2022-11-15T06:21:49;10.10;99.90
2899;DHT22;1459;50.864;6.438;2022-11-15T06:24:16;10.10;99.90
2899;DHT22;1459;50.864;6.438;2022-11-15T06:26:43;10.10;99.90
2899;DHT22;1459;50.864;6.438;2022-11-15T06:29:10;10.10;99.90
2899;DHT22;1459;50.864;6.438;2022-11-15T06:31:38;10.00;99.90
2899;DHT22;1459;50.864;6.438;2022-11-15T06:34:05;10.00;99.90
2899;DHT22;1459;50.864;6.438;2022-11-15T06:36:34;10.00;99.90
2899;DHT22;1459;50.864;6.438;2022-11-15T06:39:01;10.00;99.90
2899;DHT22;1459;50.864;6.438;2022-11-15T06:41:28;10.00;99.90
2899;DHT22;1459;50.864;6.438;2022-11-15T06:43:55;10.10;99.90
2899;DHT22;1459;50.864;6.438;2022-11-15T06:46:23;10.10;99.90
2899;DHT22;1459;50.864;6.438;2022-11-15T06:48:52;10.10;99.90
2899;DHT22;1459;50.864;6.438;2022-11-15T06:51:19;10.20;99.90
2899;DHT22;1459;50.864;6.438;2022-11-15T06:53:46;10.20;99.90
2899;DHT22;1459;50.864;6.438;2022-11-15T06:56:13;10.20;99.90
2899;DHT22;1459;50.864;6.438;2022-11-15T06:58:40;10.20;99.90
2899;DHT22;1459;50.864;6.438;2022-11-15T07:01:09;10.20;99.90
2899;DHT22;1459;50.864;6.438;2022-11-15T07:03:36;10.30;99.90
2899;DHT22;1459;50.864;6.438;2022-11-15T07:06:05;10.30;99.90
2899;DHT22;1459;50.864;6.438;2022-11-15T07:08:33;10.30;99.90
2899;DHT22;1459;50.864;6.438;2022-11-15T07:11:02;10.30;99.90
2899;DHT22;1459;50.864;6.438;2022-11-15T07:13:30;10.30;99.90
2899;DHT22;1459;50.864;6.438;2022-11-15T07:16:01;10.30;99.90
2899;DHT22;1459;50.864;6.438;2022-11-15T07:18:28;10.30;99.90
2899;DHT22;1459;50.864;6.438;2022-11-15T07:20:55;10.40;99.90
2899;DHT22;1459;50.864;6.438;2022-11-15T07:23:24;10.40;99.90
2899;DHT22;1459;50.864;6.438;2022-11-15T07:25:50;10.50;99.90
2899;DHT22;1459;50.864;6.438;2022-11-15T07:28:18;10.50;99.90
2899;DHT22;1459;50.864;6.438;2022-11-15T07:30:47;10.60;99.90
2899;DHT22;1459;50.864;6.438;2022-11-15T07:33:14;10.60;99.90
2899;DHT22;1459;50.864;6.438;2022-11-15T07:35:41;10.70;99.90
2899;DHT22;1459;50.864;6.438;2022-11-15T07:38:15;10.70;99.90
2899;DHT22;1459;50.864;6.438;2022-11-15T07:40:46;10.80;99.90
2899;DHT22;1459;50.864;6.438;2022-11-15T07:43:14;10.90;99.90
2899;DHT22;1459;50.864;6.438;2022-11-15T07:45:41;11.00;99.90
2899;DHT22;1459;50.864;6.438;2022-11-15T07:48:09;11.00;99.90
2899;DHT22;1459;50.864;6.438;2022-11-15T07:50:36;11.10;99.90
2899;DHT22;1459;50.864;6.438;2022-11-15T07:53:04;11.00;99.90
2899;DHT22;1459;50.864;6.438;2022-11-15T07:55:31;11.00;99.90
2899;DHT22;1459;50.864;6.438;2022-11-15T07:58:04;11.00;99.90
2899;DHT22;1459;50.864;6.438;2022-11-15T08:00:31;11.00;99.90
2899;DHT22;1459;50.864;6.438;2022-11-15T08:03:02;11.00;99.90
2899;DHT22;1459;50.864;6.438;2022-11-15T08:05:29;11.00;99.90
2899;DHT22;1459;50.864;6.438;2022-11-15T08:07:57;10.90;99.90
2899;DHT22;1459;50.864;6.438;2022-11-15T08:10:24;11.00;99.90
2899;DHT22;1459;50.864;6.438;2022-11-15T08:12:57;11.00;99.90
2899;DHT22;1459;50.864;6.438;2022-11-15T08:15:26;11.00;99.90
2899;DHT22;1459;50.864;6.438;2022-11-15T08:17:54;11.10;99.90
2899;DHT22;1459;50.864;6.438;2022-11-15T08:20:21;11.10;99.90
2899;DHT22;1459;50.864;6.438;2022-11-15T08:22:48;11.10;99.90
2899;DHT22;1459;50.864;6.438;2022-11-15T08:25:15;11.10;99.90
2899;DHT22;1459;50.864;6.438;2022-11-15T08:27:43;11.10;99.90
2899;DHT22;1459;50.864;6.438;2022-11-15T08:30:11;11.10;99.90
2899;DHT22;1459;50.864;6.438;2022-11-15T08:32:40;11.10;99.90
2899;DHT22;1459;50.864;6.438;2022-11-15T08:35:08;11.10;99.90
2899;DHT22;1459;50.864;6.438;2022-11-15T08:37:35;11.10;99.90
2899;DHT22;1459;50.864;6.438;2022-11-15T08:40:02;11.10;99.90
2899;DHT22;1459;50.864;6.438;2022-11-15T08:42:29;11.10;99.90
2899;DHT22;1459;50.864;6.438;2022-11-15T08:44:59;11.20;99.90
2899;DHT22;1459;50.864;6.438;2022-11-15T08:47:26;11.20;99.90
2899;DHT22;1459;50.864;6.438;2022-11-15T08:49:55;11.20;99.90
2899;DHT22;1459;50.864;6.438;2022-11-15T08:52:22;11.30;99.90
2899;DHT22;1459;50.864;6.438;2022-11-15T08:54:49;11.30;99.90
2899;DHT22;1459;50.864;6.438;2022-11-15T08:57:16;11.30;99.90
2899;DHT22;1459;50.864;6.438;2022-11-15T08:59:43;11.40;99.90
2899;DHT22;1459;50.864;6.438;2022-11-15T09:02:12;11.40;99.90
2899;DHT22;1459;50.864;6.438;2022-11-15T09:04:40;11.50;99.90
2899;DHT22;1459;50.864;6.438;2022-11-15T09:07:09;11.50;99.90
2899;DHT22;1459;50.864;6.438;2022-11-15T09:09:37;11.60;99.90
2899;DHT22;1459;50.864;6.438;2022-11-15T09:12:05;11.60;99.90
2899;DHT22;1459;50.864;6.438;2022-11-15T09:14:33;11.70;99.90
2899;DHT22;1459;50.864;6.438;2022-11-15T09:17:00;11.70;99.90
2899;DHT22;1459;50.864;6.438;2022-11-15T09:19:27;11.80;99.90
2899;DHT22;1459;50.864;6.438;2022-11-15T09:21:54;11.90;99.90
2899;DHT22;1459;50.864;6.438;2022-11-15T09:24:23;11.90;99.90
2899;DHT22;1459;50.864;6.438;2022-11-15T09:26:50;11.90;99.90
2899;DHT22;1459;50.864;6.438;2022-11-15T09:29:17;11.90;99.90
2899;DHT22;1459;50.864;6.438;2022-11-15T09:31:44;12.00;99.90
2899;DHT22;1459;50.864;6.438;2022-11-15T09:34:11;12.00;99.90
2899;DHT22;1459;50.864;6.438;2022-11-15T09:36:38;12.00;99.90
2899;DHT22;1459;50.864;6.438;2022-11-15T09:39:05;12.00;99.90
2899;DHT22;1459;50.864;6.438;2022-11-15T09:42:07;12.00;99.90
2899;DHT22;1459;50.864;6.438;2022-11-15T09:44:52;12.00;99.90
2899;DHT22;1459;50.864;6.438;2022-11-15T09:47:40;12.00;99.90
2899;DHT22;1459;50.864;6.438;2022-11-15T09:50:11;12.00;99.90
2899;DHT22;1459;50.864;6.438;2022-11-15T09:52:42;12.00;99.90
2899;DHT22;1459;50.864;6.438;2022-11-15T09:55:11;12.10;99.90
2899;DHT22;1459;50.864;6.438;2022-11-15T09:57:46;12.10;99.90
2899;DHT22;1459;50.864;6.438;2022-11-15T10:00:18;12.10;99.90
2899;DHT22;1459;50.864;6.438;2022-11-15T10:02:59;12.20;99.90
2899;DHT22;1459;50.864;6.438;2022-11-15T10:05:30;12.20;99.90
2899;DHT22;1459;50.864;6.438;2022-11-15T10:08:03;12.20;99.90
2899;DHT22;1459;50.864;6.438;2022-11-15T10:10:37;12.20;99.90
2899;DHT22;1459;50.864;6.438;2022-11-15T10:13:13;12.20;99.90
2899;DHT22;1459;50.864;6.438;2022-11-15T10:15:42;12.20;99.90
2899;DHT22;1459;50.864;6.438;2022-11-15T10:18:18;12.30;99.90
2899;DHT22;1459;50.864;6.438;2022-11-15T10:20:48;12.30;99.90
2899;DHT22;1459;50.864;6.438;2022-11-15T10:23:18;12.30;99.90
2899;DHT22;1459;50.864;6.438;2022-11-15T10:25:45;12.40;99.90
2899;DHT22;1459;50.864;6.438;2022-11-15T10:28:17;12.40;99.90
2899;DHT22;1459;50.864;6.438;2022-11-15T10:30:52;12.50;99.90
2899;DHT22;1459;50.864;6.438;2022-11-15T10:33:26;12.50;99.90
2899;DHT22;1459;50.864;6.438;2022-11-15T10:36:15;12.60;99.90
2899;DHT22;1459;50.864;6.438;2022-11-15T10:38:56;12.60;99.90
2899;DHT22;1459;50.864;6.438;2022-11-15T10:41:35;12.70;99.90
2899;DHT22;1459;50.864;6.438;2022-11-15T10:47:19;12.80;99.90
2899;DHT22;1459;50.864;6.438;2022-11-15T10:49:54;12.90;99.90
2899;DHT22;1459;50.864;6.438;2022-11-15T10:52:22;13.00;99.90
2899;DHT22;1459;50.864;6.438;2022-11-15T10:54:54;13.00;99.90
2899;DHT22;1459;50.864;6.438;2022-11-15T10:57:25;13.10;99.90
2899;DHT22;1459;50.864;6.438;2022-11-15T10:59:57;13.10;99.90
2899;DHT22;1459;50.864;6.438;2022-11-15T11:02:30;13.10;99.90
2899;DHT22;1459;50.864;6.438;2022-11-15T11:04:58;13.20;99.90
2899;DHT22;1459;50.864;6.438;2022-11-15T11:07:27;13.20;99.90
2899;DHT22;1459;50.864;6.438;2022-11-15T11:09:59;13.20;99.90
2899;DHT22;1459;50.864;6.438;2022-11-15T11:12:29;13.20;99.90
2899;DHT22;1459;50.864;6.438;2022-11-15T11:14:59;13.40;99.90
2899;DHT22;1459;50.864;6.438;2022-11-15T11:17:35;13.50;99.90
2899;DHT22;1459;50.864;6.438;2022-11-15T11:20:10;13.50;99.90
2899;DHT22;1459;50.864;6.438;2022-11-15T11:22:56;13.60;99.90
2899;DHT22;1459;50.864;6.438;2022-11-15T11:25:30;13.70;99.90
2899;DHT22;1459;50.864;6.438;2022-11-15T11:28:14;13.70;99.90
2899;DHT22;1459;50.864;6.438;2022-11-15T11:30:59;13.80;99.90
2899;DHT22;1459;50.864;6.438;2022-11-15T11:33:31;13.90;99.90
2899;DHT22;1459;50.864;6.438;2022-11-15T11:36:07;14.00;99.90
2899;DHT22;1459;50.864;6.438;2022-11-15T11:38:44;14.00;99.90
2899;DHT22;1459;50.864;6.438;2022-11-15T11:41:38;14.10;99.90
2899;DHT22;1459;50.864;6.438;2022-11-15T11:44:18;14.20;99.90
2899;DHT22;1459;50.864;6.438;2022-11-15T11:46:55;14.40;99.90
2899;DHT22;1459;50.864;6.438;2022-11-15T11:49:30;14.40;99.90
2899;DHT22;1459;50.864;6.438;2022-11-15T11:52:02;14.50;99.90
2899;DHT22;1459;50.864;6.438;2022-11-15T11:54:37;14.50;99.90
2899;DHT22;1459;50.864;6.438;2022-11-15T11:57:10;14.50;99.90
2899;DHT22;1459;50.864;6.438;2022-11-15T11:59:43;14.50;99.90
2899;DHT22;1459;50.864;6.438;2022-11-15T12:02:20;14.50;99.90
2899;DHT22;1459;50.864;6.438;2022-11-15T12:04:59;14.60;99.90
2899;DHT22;1459;50.864;6.438;2022-11-15T12:07:32;14.60;99.90
2899;DHT22;1459;50.864;6.438;2022-11-15T12:10:04;14.70;99.90
2899;DHT22;1459;50.864;6.438;2022-11-15T12:12:44;14.80;99.90
2899;DHT22;1459;50.864;6.438;2022-11-15T12:15:15;14.90;99.90
2899;DHT22;1459;50.864;6.438;2022-11-15T12:17:45;15.00;99.90
2899;DHT22;1459;50.864;6.438;2022-11-15T12:20:17;15.00;99.90
2899;DHT22;1459;50.864;6.438;2022-11-15T12:22:49;15.00;99.90
2899;DHT22;1459;50.864;6.438;2022-11-15T12:25:24;15.00;99.90
2899;DHT22;1459;50.864;6.438;2022-11-15T12:27:56;15.10;99.90
2899;DHT22;1459;50.864;6.438;2022-11-15T12:30:25;15.10;99.90
2899;DHT22;1459;50.864;6.438;2022-11-15T12:32:57;15.30;99.90
2899;DHT22;1459;50.864;6.438;2022-11-15T12:35:28;15.40;99.90
2899;DHT22;1459;50.864;6.438;2022-11-15T12:37:56;15.30;99.90
2899;DHT22;1459;50.864;6.438;2022-11-15T12:40:35;15.30;99.90
2899;DHT22;1459;50.864;6.438;2022-11-15T12:43:07;15.20;99.90
2899;DHT22;1459;50.864;6.438;2022-11-15T12:45:38;15.20;99.90
2899;DHT22;1459;50.864;6.438;2022-11-15T12:55:08;15.20;99.90
2899;DHT22;1459;50.864;6.438;2022-11-15T12:57:49;15.20;99.90
2899;DHT22;1459;50.864;6.438;2022-11-15T13:00:43;15.20;99.90
2899;DHT22;1459;50.864;6.438;2022-11-15T13:03:25;15.30;99.90
2899;DHT22;1459;50.864;6.438;2022-11-15T13:09:01;15.30;99.90
2899;DHT22;1459;50.864;6.438;2022-11-15T13:11:54;15.30;99.90
2899;DHT22;1459;50.864;6.438;2022-11-15T13:14:44;15.30;99.90
2899;DHT22;1459;50.864;6.438;2022-11-15T13:17:33;15.30;99.90
2899;DHT22;1459;50.864;6.438;2022-11-15T13:20:26;15.30;99.90
2899;DHT22;1459;50.864;6.438;2022-11-15T13:23:00;15.30;99.90
2899;DHT22;1459;50.864;6.438;2022-11-15T13:28:37;15.50;99.90
2899;DHT22;1459;50.864;6.438;2022-11-15T13:31:23;15.50;99.90
2899;DHT22;1459;50.864;6.438;2022-11-15T13:33:52;15.60;99.90
2899;DHT22;1459;50.864;6.438;2022-11-15T13:36:21;15.70;99.90
2899;DHT22;1459;50.864;6.438;2022-11-15T13:38:57;15.70;99.90
2899;DHT22;1459;50.864;6.438;2022-11-15T13:41:27;15.80;99.90
2899;DHT22;1459;50.864;6.438;2022-11-15T13:43:57;15.80;99.90
2899;DHT22;1459;50.864;6.438;2022-11-15T13:46:25;15.80;99.90
2899;DHT22;1459;50.864;6.438;2022-11-15T13:48:56;15.80;99.90
2899;DHT22;1459;50.864;6.438;2022-11-15T13:51:37;15.70;99.90
2899;DHT22;1459;50.864;6.438;2022-11-15T13:54:09;15.70;99.90
2899;DHT22;1459;50.864;6.438;2022-11-15T13:56:44;15.60;99.90
2899;DHT22;1459;50.864;6.438;2022-11-15T13:59:19;15.60;99.90
2899;DHT22;1459;50.864;6.438;2022-11-15T14:01:50;15.50;99.90
2899;DHT22;1459;50.864;6.438;2022-11-15T14:04:20;15.50;99.90
2899;DHT22;1459;50.864;6.438;2022-11-15T14:06:49;15.40;99.90
2899;DHT22;1459;50.864;6.438;2022-11-15T14:09:35;15.30;99.90
2899;DHT22;1459;50.864;6.438;2022-11-15T14:12:25;15.30;99.90
2899;DHT22;1459;50.864;6.438;2022-11-15T14:14:55;15.20;99.90
2899;DHT22;1459;50.864;6.438;2022-11-15T14:17:34;15.20;99.90
2899;DHT22;1459;50.864;6.438;2022-11-15T14:20:02;15.20;99.90
2899;DHT22;1459;50.864;6.438;2022-11-15T14:22:30;15.20;99.90
2899;DHT22;1459;50.864;6.438;2022-11-15T14:25:21;15.20;99.90
2899;DHT22;1459;50.864;6.438;2022-11-15T14:28:08;15.20;99.90
2899;DHT22;1459;50.864;6.438;2022-11-15T14:30:37;15.20;99.90
2899;DHT22;1459;50.864;6.438;2022-11-15T14:33:18;15.20;99.90
2899;DHT22;1459;50.864;6.438;2022-11-15T14:35:45;15.20;99.90
2899;DHT22;1459;50.864;6.438;2022-11-15T14:38:12;15.10;99.90
2899;DHT22;1459;50.864;6.438;2022-11-15T14:40:40;15.10;99.90
2899;DHT22;1459;50.864;6.438;2022-11-15T14:43:10;15.10;99.90
2899;DHT22;1459;50.864;6.438;2022-11-15T14:45:39;15.00;99.90
2899;DHT22;1459;50.864;6.438;2022-11-15T14:48:06;15.00;99.90
2899;DHT22;1459;50.864;6.438;2022-11-15T14:50:34;15.00;99.90
2899;DHT22;1459;50.864;6.438;2022-11-15T14:53:01;14.90;99.90
2899;DHT22;1459;50.864;6.438;2022-11-15T14:55:30;14.90;99.90
2899;DHT22;1459;50.864;6.438;2022-11-15T14:58:00;14.80;99.90
2899;DHT22;1459;50.864;6.438;2022-11-15T15:00:29;14.80;99.90
2899;DHT22;1459;50.864;6.438;2022-11-15T15:02:58;14.70;99.90
2899;DHT22;1459;50.864;6.438;2022-11-15T15:05:35;14.70;99.90
2899;DHT22;1459;50.864;6.438;2022-11-15T15:08:03;14.60;99.90
2899;DHT22;1459;50.864;6.438;2022-11-15T15:10:32;14.60;99.90
2899;DHT22;1459;50.864;6.438;2022-11-15T15:13:00;14.50;99.90
2899;DHT22;1459;50.864;6.438;2022-11-15T15:15:36;14.50;99.90
2899;DHT22;1459;50.864;6.438;2022-11-15T15:18:05;14.40;99.90
2899;DHT22;1459;50.864;6.438;2022-11-15T15:20:34;14.40;99.90
2899;DHT22;1459;50.864;6.438;2022-11-15T15:23:01;14.40;99.90
2899;DHT22;1459;50.864;6.438;2022-11-15T15:25:30;14.30;99.90
2899;DHT22;1459;50.864;6.438;2022-11-15T15:27:58;14.30;99.90
2899;DHT22;1459;50.864;6.438;2022-11-15T15:30:27;14.30;99.90
2899;DHT22;1459;50.864;6.438;2022-11-15T15:32:54;14.20;99.90
2899;DHT22;1459;50.864;6.438;2022-11-15T15:35:23;14.30;99.90
2899;DHT22;1459;50.864;6.438;2022-11-15T15:37:50;14.20;99.90
2899;DHT22;1459;50.864;6.438;2022-11-15T15:40:19;14.20;99.90
2899;DHT22;1459;50.864;6.438;2022-11-15T15:42:46;14.20;99.90
2899;DHT22;1459;50.864;6.438;2022-11-15T15:45:14;14.10;99.90
2899;DHT22;1459;50.864;6.438;2022-11-15T15:47:42;14.10;99.90
2899;DHT22;1459;50.864;6.438;2022-11-15T15:50:21;14.10;99.90
2899;DHT22;1459;50.864;6.438;2022-11-15T15:52:50;14.10;99.90
2899;DHT22;1459;50.864;6.438;2022-11-15T15:55:18;14.00;99.90
2899;DHT22;1459;50.864;6.438;2022-11-15T15:57:45;14.00;99.90
2899;DHT22;1459;50.864;6.438;2022-11-15T16:00:13;14.00;99.90
2899;DHT22;1459;50.864;6.438;2022-11-15T16:02:40;14.00;99.90
2899;DHT22;1459;50.864;6.438;2022-11-15T16:05:08;14.00;99.90
2899;DHT22;1459;50.864;6.438;2022-11-15T16:07:36;14.00;99.90
2899;DHT22;1459;50.864;6.438;2022-11-15T16:10:16;13.90;99.90
2899;DHT22;1459;50.864;6.438;2022-11-15T16:12:44;13.90;99.90
2899;DHT22;1459;50.864;6.438;2022-11-15T16:15:11;13.90;99.90
2899;DHT22;1459;50.864;6.438;2022-11-15T16:17:40;13.90;99.90
2899;DHT22;1459;50.864;6.438;2022-11-15T16:20:21;13.90;99.90
2899;DHT22;1459;50.864;6.438;2022-11-15T16:22:48;13.90;99.90
2899;DHT22;1459;50.864;6.438;2022-11-15T16:25:16;13.90;99.90
2899;DHT22;1459;50.864;6.438;2022-11-15T16:27:43;13.90;99.90
2899;DHT22;1459;50.864;6.438;2022-11-15T16:30:14;13.90;99.90
2899;DHT22;1459;50.864;6.438;2022-11-15T16:32:42;13.80;99.90
2899;DHT22;1459;50.864;6.438;2022-11-15T16:35:11;13.80;99.90
2899;DHT22;1459;50.864;6.438;2022-11-15T16:37:38;13.80;99.90
2899;DHT22;1459;50.864;6.438;2022-11-15T16:40:16;13.80;99.90
2899;DHT22;1459;50.864;6.438;2022-11-15T16:42:44;13.80;99.90
2899;DHT22;1459;50.864;6.438;2022-11-15T16:45:12;13.80;99.90